sensor_id;sensor_type;location;lat;lon;timestamp;pressure;altitude;pressure_sealevel;temperature;humidity
68793;BME280;55778;54.346;10.210;2023-03-01T00:02:10;102748.34;;;0.64;100.00
68793;BME280;55778;54.346;10.210;2023-03-01T00:04:35;102746.50;;;0.64;100.00
68793;BME280;55778;54.346;10.210;2023-03-01T00:07:01;102740.94;;;0.73;100.00
68793;BME280;55778;54.346;10.210;2023-03-01T00:09:26;102744.44;;;0.77;100.00
68793;BME280;55778;54.346;10.210;2023-03-01T00:11:52;102760.66;;;0.72;100.00
68793;BME280;55778;54.346;10.210;2023-03-01T00:14:17;102747.41;;;0.65;100.00
68793;BME280;55778;54.346;10.210;2023-03-01T00:16:43;102748.16;;;0.71;100.00
68793;BME280;55778;54.346;10.210;2023-03-01T00:19:12;102742.81;;;0.71;100.00
68793;BME280;55778;54.346;10.210;2023-03-01T00:21:38;102733.59;;;0.81;100.00
68793;BME280;55778;54.346;10.210;2023-03-01T00:24:04;102737.97;;;0.85;100.00
68793;BME280;55778;54.346;10.210;2023-03-01T00:26:29;102746.59;;;0.99;100.00
68793;BME280;55778;54.346;10.210;2023-03-01T00:28:57;102739.25;;;1.06;100.00
68793;BME280;55778;54.346;10.210;2023-03-01T00:31:24;102741.69;;;1.16;100.00
68793;BME280;55778;54.346;10.210;2023-03-01T00:33:54;102748.84;;;1.16;100.00
68793;BME280;55778;54.346;10.210;2023-03-01T00:36:24;102755.06;;;1.18;100.00
68793;BME280;55778;54.346;10.210;2023-03-01T00:38:50;102747.91;;;1.18;100.00
68793;BME280;55778;54.346;10.210;2023-03-01T00:41:17;102746.25;;;1.11;100.00
68793;BME280;55778;54.346;10.210;2023-03-01T00:43:43;102746.34;;;1.10;100.00
68793;BME280;55778;54.346;10.210;2023-03-01T00:46:15;102749.84;;;1.12;100.00
68793;BME280;55778;54.346;10.210;2023-03-01T00:48:41;102750.13;;;1.00;100.00
68793;BME280;55778;54.346;10.210;2023-03-01T00:51:18;102742.38;;;0.88;100.00
68793;BME280;55778;54.346;10.210;2023-03-01T00:53:45;102741.91;;;0.71;100.00
68793;BME280;55778;54.346;10.210;2023-03-01T00:56:12;102742.66;;;0.76;100.00
68793;BME280;55778;54.346;10.210;2023-03-01T00:58:38;102738.72;;;0.92;100.00
68793;BME280;55778;54.346;10.210;2023-03-01T01:01:12;102738.97;;;0.81;100.00
68793;BME280;55778;54.346;10.210;2023-03-01T01:03:49;102741.69;;;0.80;100.00
68793;BME280;55778;54.346;10.210;2023-03-01T01:06:24;102734.06;;;0.62;100.00
68793;BME280;55778;54.346;10.210;2023-03-01T01:08:51;102729.13;;;0.44;100.00
68793;BME280;55778;54.346;10.210;2023-03-01T01:11:18;102729.47;;;0.27;100.00
68793;BME280;55778;54.346;10.210;2023-03-01T01:13:45;102727.63;;;0.31;100.00
68793;BME280;55778;54.346;10.210;2023-03-01T01:16:11;102724.97;;;0.29;100.00
68793;BME280;55778;54.346;10.210;2023-03-01T01:18:39;102712.69;;;0.19;100.00
68793;BME280;55778;54.346;10.210;2023-03-01T01:21:14;102720.63;;;0.24;100.00
68793;BME280;55778;54.346;10.210;2023-03-01T01:23:41;102720.47;;;0.31;100.00
68793;BME280;55778;54.346;10.210;2023-03-01T01:26:08;102714.22;;;0.31;100.00
68793;BME280;55778;54.346;10.210;2023-03-01T01:28:34;102711.06;;;0.11;100.00
68793;BME280;55778;54.346;10.210;2023-03-01T01:30:59;102706.16;;;-0.09;100.00
68793;BME280;55778;54.346;10.210;2023-03-01T01:33:25;102706.03;;;-0.03;100.00
68793;BME280;55778;54.346;10.210;2023-03-01T01:35:52;102704.03;;;0.07;100.00
68793;BME280;55778;54.346;10.210;2023-03-01T01:38:17;102704.81;;;0.12;100.00
68793;BME280;55778;54.346;10.210;2023-03-01T01:40:46;102703.84;;;0.14;100.00
68793;BME280;55778;54.346;10.210;2023-03-01T01:43:24;102702.84;;;0.20;100.00
68793;BME280;55778;54.346;10.210;2023-03-01T01:45:50;102702.06;;;0.15;100.00
68793;BME280;55778;54.346;10.210;2023-03-01T01:48:22;102706.00;;;-0.02;100.00
68793;BME280;55778;54.346;10.210;2023-03-01T01:50:55;102697.34;;;-0.16;100.00
68793;BME280;55778;54.346;10.210;2023-03-01T01:53:24;102697.31;;;-0.14;100.00
68793;BME280;55778;54.346;10.210;2023-03-01T01:55:55;102695.63;;;-0.18;100.00
68793;BME280;55778;54.346;10.210;2023-03-01T01:58:24;102701.22;;;-0.30;100.00
68793;BME280;55778;54.346;10.210;2023-03-01T02:00:52;102695.31;;;-0.49;100.00
68793;BME280;55778;54.346;10.210;2023-03-01T02:03:22;102698.09;;;-0.53;100.00
68793;BME280;55778;54.346;10.210;2023-03-01T02:05:53;102692.03;;;-0.63;100.00
68793;BME280;55778;54.346;10.210;2023-03-01T02:08:21;102691.28;;;-0.71;100.00
68793;BME280;55778;54.346;10.210;2023-03-01T02:10:49;102689.53;;;-0.72;100.00
68793;BME280;55778;54.346;10.210;2023-03-01T02:13:15;102683.28;;;-0.72;100.00
68793;BME280;55778;54.346;10.210;2023-03-01T02:15:41;102683.19;;;-0.68;100.00
68793;BME280;55778;54.346;10.210;2023-03-01T02:18:10;102680.44;;;-0.63;100.00
68793;BME280;55778;54.346;10.210;2023-03-01T02:23:05;102677.75;;;-0.63;100.00
68793;BME280;55778;54.346;10.210;2023-03-01T02:30:42;102689.72;;;-0.82;100.00
68793;BME280;55778;54.346;10.210;2023-03-01T02:33:29;102679.91;;;-0.82;100.00
68793;BME280;55778;54.346;10.210;2023-03-01T02:36:00;102671.16;;;-0.91;100.00
68793;BME280;55778;54.346;10.210;2023-03-01T02:38:27;102664.84;;;-0.89;100.00
68793;BME280;55778;54.346;10.210;2023-03-01T02:40:53;102671.25;;;-0.97;100.00
68793;BME280;55778;54.346;10.210;2023-03-01T02:43:21;102672.22;;;-1.01;100.00
68793;BME280;55778;54.346;10.210;2023-03-01T02:45:50;102666.00;;;-1.03;100.00
68793;BME280;55778;54.346;10.210;2023-03-01T02:48:16;102658.94;;;-1.07;100.00
68793;BME280;55778;54.346;10.210;2023-03-01T02:51:11;102655.25;;;-1.00;100.00
68793;BME280;55778;54.346;10.210;2023-03-01T02:54:08;102649.91;;;-1.00;100.00
68793;BME280;55778;54.346;10.210;2023-03-01T02:56:37;102655.22;;;-0.99;100.00
68793;BME280;55778;54.346;10.210;2023-03-01T02:59:02;102650.69;;;-0.94;100.00
68793;BME280;55778;54.346;10.210;2023-03-01T03:01:29;102651.69;;;-1.01;100.00
68793;BME280;55778;54.346;10.210;2023-03-01T03:04:09;102653.59;;;-1.07;100.00
68793;BME280;55778;54.346;10.210;2023-03-01T03:06:36;102650.03;;;-1.08;100.00
68793;BME280;55778;54.346;10.210;2023-03-01T03:09:03;102643.75;;;-1.07;100.00
68793;BME280;55778;54.346;10.210;2023-03-01T03:11:29;102652.69;;;-1.06;100.00
68793;BME280;55778;54.346;10.210;2023-03-01T03:13:55;102646.31;;;-0.99;100.00
68793;BME280;55778;54.346;10.210;2023-03-01T03:16:21;102647.34;;;-1.06;100.00
68793;BME280;55778;54.346;10.210;2023-03-01T03:18:49;102646.44;;;-1.07;100.00
68793;BME280;55778;54.346;10.210;2023-03-01T03:21:15;102649.13;;;-1.08;100.00
68793;BME280;55778;54.346;10.210;2023-03-01T03:23:41;102649.22;;;-1.11;100.00
68793;BME280;55778;54.346;10.210;2023-03-01T03:26:10;102641.31;;;-1.19;100.00
68793;BME280;55778;54.346;10.210;2023-03-01T03:28:38;102640.47;;;-1.22;100.00
68793;BME280;55778;54.346;10.210;2023-03-01T03:31:06;102629.81;;;-1.24;100.00
68793;BME280;55778;54.346;10.210;2023-03-01T03:33:32;102629.91;;;-1.30;100.00
68793;BME280;55778;54.346;10.210;2023-03-01T03:35:57;102627.25;;;-1.30;100.00
68793;BME280;55778;54.346;10.210;2023-03-01T03:38:23;102630.81;;;-1.29;100.00
68793;BME280;55778;54.346;10.210;2023-03-01T03:41:03;102630.84;;;-1.31;100.00
68793;BME280;55778;54.346;10.210;2023-03-01T03:43:31;102621.94;;;-1.33;100.00
68793;BME280;55778;54.346;10.210;2023-03-01T03:45:57;102625.56;;;-1.35;100.00
68793;BME280;55778;54.346;10.210;2023-03-01T03:48:22;102620.28;;;-1.40;100.00
68793;BME280;55778;54.346;10.210;2023-03-01T03:50:57;102625.75;;;-1.46;100.00
68793;BME280;55778;54.346;10.210;2023-03-01T03:53:24;102620.41;;;-1.46;100.00
68793;BME280;55778;54.346;10.210;2023-03-01T03:55:50;102612.44;;;-1.50;100.00
68793;BME280;55778;54.346;10.210;2023-03-01T03:58:17;102616.81;;;-1.46;100.00
68793;BME280;55778;54.346;10.210;2023-03-01T04:00:46;102621.22;;;-1.44;100.00
68793;BME280;55778;54.346;10.210;2023-03-01T04:03:13;102607.84;;;-1.44;100.00
68793;BME280;55778;54.346;10.210;2023-03-01T04:05:40;102619.41;;;-1.40;100.00
68793;BME280;55778;54.346;10.210;2023-03-01T04:08:06;102620.16;;;-1.31;100.00
68793;BME280;55778;54.346;10.210;2023-03-01T04:10:40;102614.72;;;-1.26;100.00
68793;BME280;55778;54.346;10.210;2023-03-01T04:13:09;102614.63;;;-1.22;100.00
68793;BME280;55778;54.346;10.210;2023-03-01T04:15:36;102612.00;;;-1.23;100.00
68793;BME280;55778;54.346;10.210;2023-03-01T04:18:01;102611.31;;;-1.36;100.00
68793;BME280;55778;54.346;10.210;2023-03-01T04:20:30;102606.81;;;-1.34;100.00
68793;BME280;55778;54.346;10.210;2023-03-01T04:23:06;102611.34;;;-1.39;100.00
68793;BME280;55778;54.346;10.210;2023-03-01T04:25:58;102615.13;;;-1.50;100.00
68793;BME280;55778;54.346;10.210;2023-03-01T04:28:35;102613.38;;;-1.51;100.00
68793;BME280;55778;54.346;10.210;2023-03-01T04:31:07;102608.09;;;-1.56;100.00
68793;BME280;55778;54.346;10.210;2023-03-01T04:33:42;102609.75;;;-1.49;100.00
68793;BME280;55778;54.346;10.210;2023-03-01T04:36:08;102608.69;;;-1.39;100.00
68793;BME280;55778;54.346;10.210;2023-03-01T04:38:35;102615.47;;;-1.20;100.00
68793;BME280;55778;54.346;10.210;2023-03-01T04:41:02;102619.16;;;-1.25;100.00
68793;BME280;55778;54.346;10.210;2023-03-01T04:43:28;102610.09;;;-1.18;100.00
68793;BME280;55778;54.346;10.210;2023-03-01T04:45:53;102620.72;;;-1.14;100.00
68793;BME280;55778;54.346;10.210;2023-03-01T04:48:19;102621.72;;;-1.19;100.00
68793;BME280;55778;54.346;10.210;2023-03-01T04:50:44;102622.38;;;-1.08;100.00
68793;BME280;55778;54.346;10.210;2023-03-01T04:53:09;102627.03;;;-1.18;100.00
68793;BME280;55778;54.346;10.210;2023-03-01T04:55:35;102621.94;;;-1.33;100.00
68793;BME280;55778;54.346;10.210;2023-03-01T04:58:00;102626.69;;;-1.48;100.00
68793;BME280;55778;54.346;10.210;2023-03-01T05:00:26;102617.81;;;-1.52;100.00
68793;BME280;55778;54.346;10.210;2023-03-01T05:05:26;102623.72;;;-1.33;100.00
68793;BME280;55778;54.346;10.210;2023-03-01T05:07:56;102624.50;;;-1.25;100.00
68793;BME280;55778;54.346;10.210;2023-03-01T05:10:22;102622.53;;;-1.14;100.00
68793;BME280;55778;54.346;10.210;2023-03-01T05:12:48;102622.16;;;-0.95;100.00
68793;BME280;55778;54.346;10.210;2023-03-01T05:15:14;102620.38;;;-0.94;100.00
68793;BME280;55778;54.346;10.210;2023-03-01T05:17:40;102613.28;;;-0.97;100.00
68793;BME280;55778;54.346;10.210;2023-03-01T05:20:05;102615.19;;;-1.05;100.00
68793;BME280;55778;54.346;10.210;2023-03-01T05:22:34;102619.03;;;-1.19;100.00
68793;BME280;55778;54.346;10.210;2023-03-01T05:25:00;102616.47;;;-1.25;100.00
68793;BME280;55778;54.346;10.210;2023-03-01T05:27:26;102614.75;;;-1.28;100.00
68793;BME280;55778;54.346;10.210;2023-03-01T05:29:51;102619.53;;;-1.48;100.00
68793;BME280;55778;54.346;10.210;2023-03-01T05:32:16;102611.59;;;-1.54;100.00
68793;BME280;55778;54.346;10.210;2023-03-01T05:34:42;102617.78;;;-1.50;100.00
68793;BME280;55778;54.346;10.210;2023-03-01T05:37:08;102608.25;;;-1.66;100.00
68793;BME280;55778;54.346;10.210;2023-03-01T05:39:34;102615.34;;;-1.65;100.00
68793;BME280;55778;54.346;10.210;2023-03-01T05:42:00;102615.34;;;-1.65;100.00
68793;BME280;55778;54.346;10.210;2023-03-01T05:44:27;102616.38;;;-1.72;100.00
68793;BME280;55778;54.346;10.210;2023-03-01T05:46:53;102612.75;;;-1.70;100.00
68793;BME280;55778;54.346;10.210;2023-03-01T05:49:19;102617.88;;;-1.55;100.00
68793;BME280;55778;54.346;10.210;2023-03-01T05:51:50;102621.34;;;-1.50;100.00
68793;BME280;55778;54.346;10.210;2023-03-01T05:54:15;102616.91;;;-1.52;100.00
68793;BME280;55778;54.346;10.210;2023-03-01T05:56:41;102615.44;;;-1.70;100.00
68793;BME280;55778;54.346;10.210;2023-03-01T05:59:07;102626.22;;;-1.77;100.00
68793;BME280;55778;54.346;10.210;2023-03-01T06:01:33;102619.13;;;-1.78;100.00
68793;BME280;55778;54.346;10.210;2023-03-01T06:03:58;102621.72;;;-1.74;100.00
68793;BME280;55778;54.346;10.210;2023-03-01T06:06:24;102625.19;;;-1.67;100.00
68793;BME280;55778;54.346;10.210;2023-03-01T06:08:51;102614.31;;;-1.57;100.00
68793;BME280;55778;54.346;10.210;2023-03-01T06:11:16;102610.81;;;-1.59;100.00
68793;BME280;55778;54.346;10.210;2023-03-01T06:13:43;102611.69;;;-1.60;100.00
68793;BME280;55778;54.346;10.210;2023-03-01T06:16:08;102609.16;;;-1.69;100.00
68793;BME280;55778;54.346;10.210;2023-03-01T06:18:34;102611.97;;;-1.78;100.00
68793;BME280;55778;54.346;10.210;2023-03-01T06:20:59;102606.50;;;-1.69;100.00
68793;BME280;55778;54.346;10.210;2023-03-01T06:23:25;102607.22;;;-1.58;100.00
68793;BME280;55778;54.346;10.210;2023-03-01T06:25:51;102609.06;;;-1.63;100.00
68793;BME280;55778;54.346;10.210;2023-03-01T06:28:16;102611.00;;;-1.71;100.00
68793;BME280;55778;54.346;10.210;2023-03-01T06:30:42;102610.16;;;-1.74;100.00
68793;BME280;55778;54.346;10.210;2023-03-01T06:33:07;102606.63;;;-1.78;100.00
68793;BME280;55778;54.346;10.210;2023-03-01T06:35:33;102607.56;;;-1.80;100.00
68793;BME280;55778;54.346;10.210;2023-03-01T06:38:01;102600.28;;;-1.68;100.00
68793;BME280;55778;54.346;10.210;2023-03-01T06:40:26;102597.50;;;-1.62;100.00
68793;BME280;55778;54.346;10.210;2023-03-01T06:42:52;102596.78;;;-1.74;100.00
68793;BME280;55778;54.346;10.210;2023-03-01T06:45:19;102596.00;;;-1.81;100.00
68793;BME280;55778;54.346;10.210;2023-03-01T06:47:44;102601.88;;;-1.58;100.00
68793;BME280;55778;54.346;10.210;2023-03-01T06:50:10;102601.63;;;-1.43;100.00
68793;BME280;55778;54.346;10.210;2023-03-01T06:52:36;102603.44;;;-1.45;100.00
68793;BME280;55778;54.346;10.210;2023-03-01T06:55:02;102599.94;;;-1.48;100.00
68793;BME280;55778;54.346;10.210;2023-03-01T06:57:30;102596.22;;;-1.40;100.00
68793;BME280;55778;54.346;10.210;2023-03-01T06:59:56;102597.31;;;-1.50;100.00
68793;BME280;55778;54.346;10.210;2023-03-01T07:02:21;102597.31;;;-1.50;100.00
68793;BME280;55778;54.346;10.210;2023-03-01T07:04:51;102599.88;;;-1.45;100.00
68793;BME280;55778;54.346;10.210;2023-03-01T07:07:17;102605.19;;;-1.44;100.00
68793;BME280;55778;54.346;10.210;2023-03-01T07:09:44;102607.09;;;-1.50;100.00
68793;BME280;55778;54.346;10.210;2023-03-01T07:12:10;102609.94;;;-1.61;100.00
68793;BME280;55778;54.346;10.210;2023-03-01T07:14:35;102609.75;;;-1.49;100.00
68793;BME280;55778;54.346;10.210;2023-03-01T07:17:01;102613.31;;;-1.48;100.00
68793;BME280;55778;54.346;10.210;2023-03-01T07:19:27;102606.81;;;-1.34;100.00
68793;BME280;55778;54.346;10.210;2023-03-01T07:21:52;102612.19;;;-1.35;100.00
68793;BME280;55778;54.346;10.210;2023-03-01T07:24:18;102613.13;;;-1.39;100.00
68793;BME280;55778;54.346;10.210;2023-03-01T07:26:43;102613.34;;;-1.50;100.00
68793;BME280;55778;54.346;10.210;2023-03-01T07:29:10;102609.59;;;-1.40;100.00
68793;BME280;55778;54.346;10.210;2023-03-01T07:31:35;102617.38;;;-1.25;100.00
68793;BME280;55778;54.346;10.210;2023-03-01T07:34:02;102628.16;;;-1.31;100.00
68793;BME280;55778;54.346;10.210;2023-03-01T07:36:28;102626.28;;;-1.26;100.00
68793;BME280;55778;54.346;10.210;2023-03-01T07:38:53;102629.41;;;-1.01;100.00
68793;BME280;55778;54.346;10.210;2023-03-01T07:41:21;102623.81;;;-0.88;100.00
68793;BME280;55778;54.346;10.210;2023-03-01T07:43:46;102627.34;;;-0.87;100.00
68793;BME280;55778;54.346;10.210;2023-03-01T07:46:12;102638.78;;;-1.26;100.00
68793;BME280;55778;54.346;10.210;2023-03-01T07:48:37;102633.34;;;-1.20;100.00
68793;BME280;55778;54.346;10.210;2023-03-01T07:51:04;102635.94;;;-1.16;100.00
68793;BME280;55778;54.346;10.210;2023-03-01T07:53:31;102632.81;;;-1.43;100.00
68793;BME280;55778;54.346;10.210;2023-03-01T07:56:10;102648.66;;;-1.31;100.00
68793;BME280;55778;54.346;10.210;2023-03-01T07:58:41;102630.16;;;-1.45;100.00
68793;BME280;55778;54.346;10.210;2023-03-01T08:01:09;102633.47;;;-1.28;100.00
68793;BME280;55778;54.346;10.210;2023-03-01T08:03:36;102638.03;;;-1.36;100.00
68793;BME280;55778;54.346;10.210;2023-03-01T08:06:03;102644.09;;;-1.23;100.00
68793;BME280;55778;54.346;10.210;2023-03-01T08:08:29;102652.13;;;-1.25;100.00
68793;BME280;55778;54.346;10.210;2023-03-01T08:10:59;102648.34;;;-1.12;100.00
68793;BME280;55778;54.346;10.210;2023-03-01T08:13:25;102652.69;;;-1.06;100.00
68793;BME280;55778;54.346;10.210;2023-03-01T08:15:51;102640.34;;;-1.13;100.00
68793;BME280;55778;54.346;10.210;2023-03-01T08:18:18;102652.78;;;-1.12;100.00
68793;BME280;55778;54.346;10.210;2023-03-01T08:20:44;102653.53;;;-1.03;100.00
68793;BME280;55778;54.346;10.210;2023-03-01T08:23:09;102651.56;;;-0.95;100.00
68793;BME280;55778;54.346;10.210;2023-03-01T08:25:35;102658.03;;;-1.06;100.00
68793;BME280;55778;54.346;10.210;2023-03-01T08:28:00;102669.72;;;-1.12;100.00
68793;BME280;55778;54.346;10.210;2023-03-01T08:30:26;102655.84;;;-0.83;100.00
68793;BME280;55778;54.346;10.210;2023-03-01T08:32:51;102643.09;;;-0.71;100.00
68793;BME280;55778;54.346;10.210;2023-03-01T08:35:17;102653.69;;;-1.12;100.00
68793;BME280;55778;54.346;10.210;2023-03-01T08:37:43;102648.00;;;-0.94;100.00
68793;BME280;55778;54.346;10.210;2023-03-01T08:40:09;102648.53;;;-0.75;100.00
68793;BME280;55778;54.346;10.210;2023-03-01T08:42:37;102643.25;;;-0.78;100.00
68793;BME280;55778;54.346;10.210;2023-03-01T08:45:03;102638.72;;;-0.75;100.00
68793;BME280;55778;54.346;10.210;2023-03-01T08:47:29;102647.75;;;-0.79;100.00
68793;BME280;55778;54.346;10.210;2023-03-01T08:49:54;102641.63;;;-0.87;100.00
68793;BME280;55778;54.346;10.210;2023-03-01T08:52:20;102649.31;;;-0.69;100.00
68793;BME280;55778;54.346;10.210;2023-03-01T08:54:49;102656.59;;;-0.77;100.00
68793;BME280;55778;54.346;10.210;2023-03-01T08:57:14;102648.59;;;-0.78;100.00
68793;BME280;55778;54.346;10.210;2023-03-01T08:59:40;102651.25;;;-0.77;100.00
68793;BME280;55778;54.346;10.210;2023-03-01T09:02:12;102640.81;;;-0.45;100.00
68793;BME280;55778;54.346;10.210;2023-03-01T09:04:38;102648.38;;;-0.24;100.00
68793;BME280;55778;54.346;10.210;2023-03-01T09:07:03;102657.56;;;0.06;100.00
68793;BME280;55778;54.346;10.210;2023-03-01T09:09:29;102657.94;;;0.29;100.00
68793;BME280;55778;54.346;10.210;2023-03-01T09:11:54;102657.63;;;0.43;100.00
68793;BME280;55778;54.346;10.210;2023-03-01T09:14:20;102663.53;;;0.57;100.00
68793;BME280;55778;54.346;10.210;2023-03-01T09:16:45;102658.63;;;0.75;100.00
68793;BME280;55778;54.346;10.210;2023-03-01T09:19:12;102656.66;;;0.82;100.00
68793;BME280;55778;54.346;10.210;2023-03-01T09:21:37;102657.00;;;0.70;100.00
68793;BME280;55778;54.346;10.210;2023-03-01T09:24:03;102653.25;;;0.75;100.00
68793;BME280;55778;54.346;10.210;2023-03-01T09:26:28;102654.38;;;0.67;100.00
68793;BME280;55778;54.346;10.210;2023-03-01T09:28:55;102654.75;;;0.52;100.00
68793;BME280;55778;54.346;10.210;2023-03-01T09:31:22;102654.75;;;0.52;100.00
68793;BME280;55778;54.346;10.210;2023-03-01T09:33:50;102664.25;;;0.65;100.00
68793;BME280;55778;54.346;10.210;2023-03-01T09:36:19;102659.84;;;0.97;100.00
68793;BME280;55778;54.346;10.210;2023-03-01T09:38:46;102660.41;;;0.75;100.00
68793;BME280;55778;54.346;10.210;2023-03-01T09:44:00;102667.59;;;0.36;100.00
68793;BME280;55778;54.346;10.210;2023-03-01T09:46:31;102663.44;;;0.61;100.00
68793;BME280;55778;54.346;10.210;2023-03-01T09:49:05;102661.84;;;0.53;100.00
68793;BME280;55778;54.346;10.210;2023-03-01T09:51:36;102658.66;;;0.74;100.00
68793;BME280;55778;54.346;10.210;2023-03-01T09:54:02;102656.16;;;1.35;100.00
68793;BME280;55778;54.346;10.210;2023-03-01T09:56:41;102653.44;;;1.36;100.00
68793;BME280;55778;54.346;10.210;2023-03-01T09:59:20;102664.38;;;0.95;100.00
68793;BME280;55778;54.346;10.210;2023-03-01T10:09:54;102659.25;;;0.50;100.00
68793;BME280;55778;54.346;10.210;2023-03-01T10:12:24;102657.16;;;0.24;100.00
68793;BME280;55778;54.346;10.210;2023-03-01T10:14:53;102657.47;;;0.11;100.00
68793;BME280;55778;54.346;10.210;2023-03-01T10:17:38;102666.47;;;0.46;100.00
68793;BME280;55778;54.346;10.210;2023-03-01T10:22:39;102665.78;;;0.38;100.00
68793;BME280;55778;54.346;10.210;2023-03-01T10:25:04;102669.59;;;0.28;100.00
68793;BME280;55778;54.346;10.210;2023-03-01T10:27:51;102666.06;;;0.26;100.00
68793;BME280;55778;54.346;10.210;2023-03-01T10:30:46;102662.13;;;0.03;100.00
68793;BME280;55778;54.346;10.210;2023-03-01T10:33:23;102664.25;;;0.28;100.00
68793;BME280;55778;54.346;10.210;2023-03-01T10:35:50;102668.81;;;-0.17;100.00
68793;BME280;55778;54.346;10.210;2023-03-01T10:38:18;102674.97;;;0.28;100.00
68793;BME280;55778;54.346;10.210;2023-03-01T10:40:55;102677.53;;;0.33;100.00
68793;BME280;55778;54.346;10.210;2023-03-01T10:43:26;102666.56;;;0.03;100.00
68793;BME280;55778;54.346;10.210;2023-03-01T10:45:52;102666.53;;;0.05;100.00
68793;BME280;55778;54.346;10.210;2023-03-01T10:48:22;102666.81;;;0.33;100.00
68793;BME280;55778;54.346;10.210;2023-03-01T10:51:12;102670.56;;;0.24;100.00
68793;BME280;55778;54.346;10.210;2023-03-01T10:53:45;102661.50;;;0.68;100.00
68793;BME280;55778;54.346;10.210;2023-03-01T10:56:14;102661.28;;;0.77;100.00
68793;BME280;55778;54.346;10.210;2023-03-01T11:01:32;102656.84;;;0.74;100.00
68793;BME280;55778;54.346;10.210;2023-03-01T11:06:30;102658.56;;;0.40;100.00
68793;BME280;55778;54.346;10.210;2023-03-01T11:08:56;102655.66;;;0.49;100.00
68793;BME280;55778;54.346;10.210;2023-03-01T11:11:34;102648.09;;;0.31;100.00
68793;BME280;55778;54.346;10.210;2023-03-01T11:14:05;102651.41;;;0.41;100.00
68793;BME280;55778;54.346;10.210;2023-03-01T11:16:37;102651.59;;;0.71;100.00
68793;BME280;55778;54.346;10.210;2023-03-01T11:21:41;102648.19;;;0.98;100.00
68793;BME280;55778;54.346;10.210;2023-03-01T11:24:13;102645.38;;;1.03;100.00
68793;BME280;55778;54.346;10.210;2023-03-01T11:26:42;102648.22;;;1.30;100.00
68793;BME280;55778;54.346;10.210;2023-03-01T11:29:41;102645.38;;;0.69;100.00
68793;BME280;55778;54.346;10.210;2023-03-01T11:32:10;102653.72;;;0.57;100.00
68793;BME280;55778;54.346;10.210;2023-03-01T11:40:32;102648.38;;;0.56;100.00
68793;BME280;55778;54.346;10.210;2023-03-01T11:43:09;102637.75;;;0.51;100.00
68793;BME280;55778;54.346;10.210;2023-03-01T11:45:45;102630.28;;;0.99;100.00
68793;BME280;55778;54.346;10.210;2023-03-01T11:51:02;102631.47;;;0.89;100.00
68793;BME280;55778;54.346;10.210;2023-03-01T11:58:45;102630.66;;;1.17;100.00
68793;BME280;55778;54.346;10.210;2023-03-01T12:20:28;102596.63;;;1.19;100.00
68793;BME280;55778;54.346;10.210;2023-03-01T12:29:18;102595.09;;;0.76;100.00
68793;BME280;55778;54.346;10.210;2023-03-01T12:42:30;102602.28;;;0.75;100.00
68793;BME280;55778;54.346;10.210;2023-03-01T12:45:34;102599.13;;;0.58;100.00
68793;BME280;55778;54.346;10.210;2023-03-01T12:48:15;102598.34;;;0.88;100.00
68793;BME280;55778;54.346;10.210;2023-03-01T12:50:48;102591.47;;;0.78;100.00
68793;BME280;55778;54.346;10.210;2023-03-01T12:53:27;102588.16;;;0.67;100.00
68793;BME280;55778;54.346;10.210;2023-03-01T12:56:24;102587.66;;;0.87;100.00
68793;BME280;55778;54.346;10.210;2023-03-01T12:59:02;102578.13;;;1.09;100.00
68793;BME280;55778;54.346;10.210;2023-03-01T13:07:35;102579.66;;;1.17;100.00
68793;BME280;55778;54.346;10.210;2023-03-01T13:10:22;102567.47;;;1.06;100.00
68793;BME280;55778;54.346;10.210;2023-03-01T13:20:16;102579.69;;;1.48;100.00
68793;BME280;55778;54.346;10.210;2023-03-01T13:22:43;102580.41;;;1.53;100.00
68793;BME280;55778;54.346;10.210;2023-03-01T13:25:16;102568.00;;;1.79;100.00
68793;BME280;55778;54.346;10.210;2023-03-01T13:27:43;102565.75;;;1.93;100.00
68793;BME280;55778;54.346;10.210;2023-03-01T13:35:57;102566.75;;;2.19;100.00
68793;BME280;55778;54.346;10.210;2023-03-01T13:41:03;102556.03;;;2.45;100.00
68793;BME280;55778;54.346;10.210;2023-03-01T13:43:38;102553.38;;;1.59;100.00
68793;BME280;55778;54.346;10.210;2023-03-01T13:46:31;102558.16;;;1.49;100.00
68793;BME280;55778;54.346;10.210;2023-03-01T13:48:58;102548.56;;;1.70;100.00
68793;BME280;55778;54.346;10.210;2023-03-01T13:51:28;102550.28;;;1.72;100.00
68793;BME280;55778;54.346;10.210;2023-03-01T13:53:55;102550.84;;;1.83;100.00
68793;BME280;55778;54.346;10.210;2023-03-01T13:56:27;102547.63;;;2.00;100.00
68793;BME280;55778;54.346;10.210;2023-03-01T13:58:58;102544.25;;;2.21;100.00
68793;BME280;55778;54.346;10.210;2023-03-01T14:01:31;102544.38;;;2.44;100.00
68793;BME280;55778;54.346;10.210;2023-03-01T14:03:57;102546.22;;;2.42;100.00
68793;BME280;55778;54.346;10.210;2023-03-01T14:06:25;102551.34;;;2.24;100.00
68793;BME280;55778;54.346;10.210;2023-03-01T14:09:01;102546.84;;;2.24;100.00
68793;BME280;55778;54.346;10.210;2023-03-01T14:14:39;102552.19;;;1.69;100.00
68793;BME280;55778;54.346;10.210;2023-03-01T14:20:01;102556.09;;;1.88;100.00
68793;BME280;55778;54.346;10.210;2023-03-01T14:22:32;102550.81;;;1.85;100.00
68793;BME280;55778;54.346;10.210;2023-03-01T14:25:26;102546.78;;;1.40;100.00
68793;BME280;55778;54.346;10.210;2023-03-01T14:27:54;102541.75;;;1.28;100.00
68793;BME280;55778;54.346;10.210;2023-03-01T14:30:27;102543.31;;;1.06;100.00
68793;BME280;55778;54.346;10.210;2023-03-01T14:33:01;102541.84;;;0.94;100.00
68793;BME280;55778;54.346;10.210;2023-03-01T14:35:29;102537.31;;;0.96;100.00